Time;durP1;ratioP1;P1;durP2;ratioP2;P2;SDS_P1;SDS_P2;PMS_P1;PMS_P2;Temp;Humidity;BMP_temperature;BMP_pressure;BME280_temperature;BME280_humidity;BME280_pressure;Samples;Min_cycle;Max_cycle;Signal;HPM_P1;HPM_P2
2022/11/11 00:02:27;;;;;;;;;1.00;1.00;;;;;10.26;72.16;101094.44;5133937;27;8853;-56
2022/11/11 00:04:55;;;;;;;;;1.00;1.00;;;;;10.23;72.23;101099.13;5135111;27;8833;-55
2022/11/11 00:07:22;;;;;;;;;2.50;2.50;;;;;10.21;72.25;101106.31;5135097;27;8905;-57
2022/11/11 00:09:50;;;;;;;;;3.00;3.00;;;;;10.18;72.83;101120.66;5135450;27;8847;-57
2022/11/11 00:12:19;;;;;;;;;0.50;0.50;;;;;10.15;72.87;101123.50;5135992;27;9230;-57
2022/11/11 00:14:53;;;;;;;;;1.50;1.00;;;;;10.16;72.65;101133.19;5136152;27;8852;-57
2022/11/11 00:25:37;;;;;;;;;3.00;3.00;;;;;10.43;72.01;101150.22;5137238;27;8841;-56
2022/11/11 00:28:05;;;;;;;;;3.00;2.50;;;;;10.47;71.48;101148.22;5137503;27;8831;-58
2022/11/11 00:30:33;;;;;;;;;3.25;1.00;;;;;10.46;71.99;101144.69;5137434;27;8830;-57
2022/11/11 00:33:00;;;;;;;;;1.50;1.50;;;;;10.47;71.33;101135.75;5137282;27;8817;-57
2022/11/11 00:38:44;;;;;;;;;3.75;3.00;;;;;10.46;71.79;101134.03;5136775;27;8879;-58
2022/11/11 00:41:02;;;;;;;;;3.00;3.00;;;;;10.46;71.71;101133.19;5136169;27;8894;-58
2022/11/11 00:43:30;;;;;;;;;3.50;2.50;;;;;10.44;72.06;101137.75;5136015;27;9023;-58
2022/11/11 00:50:57;;;;;;;;;0.00;0.00;;;;;10.43;72.00;101128.91;5136346;27;9519;-58
2022/11/11 00:51:30;;;;;;;;;3.00;1.50;;;;;10.46;72.13;101136.72;5136075;27;8813;-57
2022/11/11 00:53:58;;;;;;;;;1.00;1.00;;;;;10.46;71.46;101136.72;5135817;27;8838;-58
2022/11/11 00:56:26;;;;;;;;;3.25;2.00;;;;;10.48;72.04;101129.47;5137149;27;9508;-58
2022/11/11 00:58:54;;;;;;;;;2.00;1.50;;;;;10.48;71.67;101134.81;5136275;27;8818;-57
2022/11/11 01:01:21;;;;;;;;;4.00;4.00;;;;;10.47;71.52;101138.41;5136627;27;8898;-58
2022/11/11 01:03:49;;;;;;;;;1.50;1.50;;;;;10.46;71.78;101133.19;5136755;27;8886;-57
2022/11/11 01:06:17;;;;;;;;;0.00;0.00;;;;;10.45;71.89;101128.78;5136735;27;8802;-56
2022/11/11 01:08:44;;;;;;;;;3.75;3.00;;;;;10.44;71.86;101133.28;5136726;27;8837;-58
2022/11/11 01:11:12;;;;;;;;;1.50;1.50;;;;;10.44;71.60;101141.28;5136630;27;8810;-58
2022/11/11 01:13:40;;;;;;;;;3.00;3.00;;;;;10.42;71.87;101140.53;5137295;27;9500;-58
2022/11/11 01:16:08;;;;;;;;;3.25;3.00;;;;;10.42;71.94;101137.84;5140330;27;8857;-58
2022/11/11 01:18:36;;;;;;;;;3.00;3.00;;;;;10.43;72.13;101139.56;5140982;27;9477;-57
2022/11/11 01:21:04;;;;;;;;;3.75;3.75;;;;;10.43;71.85;101138.69;5140421;27;9604;-58
2022/11/11 01:23:32;;;;;;;;;4.00;3.00;;;;;10.45;71.76;101134.13;5140453;27;8810;-58
2022/11/11 01:25:59;;;;;;;;;3.00;3.00;;;;;10.47;71.41;101146.41;5140287;27;8813;-58
2022/11/11 01:28:28;;;;;;;;;3.75;3.75;;;;;10.50;71.34;101145.38;5140335;27;8817;-58
2022/11/11 01:30:56;;;;;;;;;0.75;0.00;;;;;10.52;71.81;101149.66;5140280;27;8806;-57
2022/11/11 01:33:24;;;;;;;;;3.00;3.00;;;;;10.52;71.40;101141.66;5140125;27;8883;-57
2022/11/11 01:35:52;;;;;;;;;1.00;0.75;;;;;10.53;71.53;101155.81;5140103;27;8814;-57
2022/11/11 01:38:19;;;;;;;;;1.00;1.00;;;;;10.53;71.68;101158.47;5140338;27;8877;-58
2022/11/11 01:40:48;;;;;;;;;0.00;0.00;;;;;10.54;71.16;101153.06;5139967;27;8840;-58
2022/11/11 01:43:16;;;;;;;;;1.00;1.00;;;;;10.55;71.23;101148.63;5139932;27;8825;-58
2022/11/11 01:45:44;;;;;;;;;2.00;2.00;;;;;10.54;71.18;101154.91;5140083;27;8830;-57
2022/11/11 01:51:00;;;;;;;;;4.00;3.50;;;;;10.59;71.25;101164.31;5140135;27;8826;-58
2022/11/11 01:53:28;;;;;;;;;1.00;1.00;;;;;10.60;71.33;101163.38;5139426;27;8805;-58
2022/11/11 01:55:56;;;;;;;;;1.00;0.50;;;;;10.59;71.36;101164.31;5139904;27;8829;-58
2022/11/11 01:58:24;;;;;;;;;2.00;2.00;;;;;10.60;71.19;101155.38;5139761;27;8818;-58
2022/11/11 02:00:51;;;;;;;;;2.00;2.00;;;;;10.60;71.18;101155.38;5139638;27;8824;-58
2022/11/11 02:03:19;;;;;;;;;1.00;1.00;;;;;10.59;70.95;101152.78;5139493;27;8866;-58
2022/11/11 02:05:46;;;;;;;;;1.00;1.00;;;;;10.56;71.32;101148.50;5139112;27;8910;-58
2022/11/11 02:08:14;;;;;;;;;1.00;1.00;;;;;10.55;71.52;101152.13;5139837;27;8810;-58
2022/11/11 02:10:42;;;;;;;;;0.50;0.25;;;;;10.54;71.60;101154.91;5139353;27;8918;-57
2022/11/11 02:15:56;;;;;;;;;1.00;1.00;;;;;10.60;70.99;101160.72;5139277;27;8825;-58
2022/11/11 02:18:24;;;;;;;;;3.00;2.50;;;;;10.62;70.78;101161.47;5139557;27;8845;-58
2022/11/11 02:20:52;;;;;;;;;3.50;3.00;;;;;10.63;71.30;101155.19;5139590;27;8840;-58
2022/11/11 02:23:20;;;;;;;;;1.00;1.00;;;;;10.64;70.43;101156.06;5139044;27;8817;-58
2022/11/11 02:25:49;;;;;;;;;3.00;1.00;;;;;10.67;70.73;101161.19;5138364;27;8810;-58
2022/11/11 02:28:16;;;;;;;;;1.00;1.00;;;;;10.67;70.91;101162.06;5139179;27;8894;-58
2022/11/11 02:30:44;;;;;;;;;0.50;0.50;;;;;10.69;70.96;101168.13;5139253;27;8814;-58
2022/11/11 02:33:12;;;;;;;;;2.00;2.00;;;;;10.68;70.64;101171.75;5139086;27;8813;-57
2022/11/11 02:35:40;;;;;;;;;2.00;2.00;;;;;10.70;70.75;101169.84;5138828;27;8825;-58
2022/11/11 02:38:08;;;;;;;;;1.00;1.00;;;;;10.69;70.62;101176.13;5139354;27;8822;-58
2022/11/11 02:40:36;;;;;;;;;0.25;0.25;;;;;10.69;70.66;101181.47;5138838;27;8822;-58
2022/11/11 02:43:04;;;;;;;;;0.50;0.50;;;;;10.68;70.34;101187.75;5139034;27;8814;-58
2022/11/11 02:45:32;;;;;;;;;1.00;1.00;;;;;10.68;70.80;101186.88;5139146;27;8947;-58
2022/11/11 02:48:00;;;;;;;;;0.00;0.00;;;;;10.66;70.97;101181.66;5138868;27;9535;-58
2022/11/11 02:50:28;;;;;;;;;0.00;0.00;;;;;10.63;71.08;101187.16;5138868;27;8806;-58
2022/11/11 02:52:57;;;;;;;;;3.00;3.00;;;;;10.63;70.95;101181.81;5138442;27;8830;-58
2022/11/11 02:55:25;;;;;;;;;1.50;1.00;;;;;10.61;71.04;101177.56;5138795;27;8827;-58
2022/11/11 02:57:53;;;;;;;;;2.50;2.50;;;;;10.59;70.76;101180.31;5139052;27;8899;-58
2022/11/11 03:00:21;;;;;;;;;3.25;1.50;;;;;10.56;70.92;101169.81;5138856;27;8856;-58
2022/11/11 03:02:48;;;;;;;;;1.00;1.00;;;;;10.53;70.84;101164.69;5138762;27;8829;-57
2022/11/11 03:05:17;;;;;;;;;1.50;1.50;;;;;10.50;70.66;101169.34;5138407;27;8856;-58
2022/11/11 03:07:45;;;;;;;;;2.00;2.00;;;;;10.46;70.91;101168.66;5138264;27;8868;-58
2022/11/11 03:10:13;;;;;;;;;3.00;2.50;;;;;10.46;70.94;101162.50;5138790;27;8860;-58
2022/11/11 03:12:41;;;;;;;;;1.00;0.75;;;;;10.45;71.12;101164.28;5138173;27;8830;-58
2022/11/11 03:15:08;;;;;;;;;1.50;1.50;;;;;10.45;70.91;101166.94;5138211;27;8829;-58
2022/11/11 03:17:38;;;;;;;;;0.00;0.00;;;;;10.44;70.90;101159.91;5138402;27;8825;-58
2022/11/11 03:22:51;;;;;;;;;3.50;3.25;;;;;10.45;70.68;101156.31;5138010;27;8845;-58
2022/11/11 03:25:39;;;;;;;;;1.50;1.50;;;;;10.48;71.07;101149.94;5138160;27;8864;-58
2022/11/11 03:28:07;;;;;;;;;3.00;3.00;;;;;10.48;70.59;101148.13;5138076;27;8809;-58
2022/11/11 03:30:35;;;;;;;;;3.00;3.00;;;;;10.47;70.45;101142.91;5138164;27;8886;-59
2022/11/11 03:33:03;;;;;;;;;1.00;1.00;;;;;10.46;70.98;101128.72;5137998;27;8897;-58
2022/11/11 03:35:30;;;;;;;;;0.50;0.50;;;;;10.44;71.03;101138.63;5137543;27;8853;-58
2022/11/11 03:38:15;;;;;;;;;2.50;2.50;;;;;10.43;70.79;101142.22;5136549;27;8841;-58
2022/11/11 03:40:43;;;;;;;;;3.00;3.00;;;;;10.41;70.85;101148.59;5137584;27;9504;-58
2022/11/11 03:43:12;;;;;;;;;0.00;0.00;;;;;10.38;70.50;101148.75;5138108;27;8849;-58
2022/11/11 03:45:39;;;;;;;;;0.00;0.00;;;;;10.35;70.57;101146.28;5137547;27;8805;-58
2022/11/11 03:48:07;;;;;;;;;2.50;2.50;;;;;10.34;70.70;101142.78;5138134;27;8840;-58
2022/11/11 03:50:34;;;;;;;;;2.75;2.00;;;;;10.35;71.15;101138.28;5137505;27;8810;-58
2022/11/11 03:53:02;;;;;;;;;3.00;1.00;;;;;10.37;71.11;101125.75;5137464;27;8787;-58
2022/11/11 03:55:31;;;;;;;;;1.00;1.00;;;;;10.40;70.58;101131.75;5137536;27;8841;-58
2022/11/11 03:57:58;;;;;;;;;1.00;1.00;;;;;10.41;70.77;101136.13;5137693;27;8840;-57
2022/11/11 04:00:26;;;;;;;;;0.50;0.50;;;;;10.42;70.69;101129.88;5137307;27;8822;-60
2022/11/11 04:11:09;;;;;;;;;1.50;1.50;;;;;10.44;70.97;101143.94;5137145;27;8806;-58
2022/11/11 04:16:21;;;;;;;;;1.00;1.00;;;;;10.39;70.64;101148.66;5136504;27;8898;-58
2022/11/11 04:21:43;;;;;;;;;1.00;1.00;;;;;10.38;70.67;101152.28;5136698;27;8833;-56
2022/11/11 04:26:52;;;;;;;;;0.50;0.50;;;;;10.35;70.42;101149.81;5081217;27;8869;-56
2022/11/11 04:29:28;;;;;;;;;1.00;1.00;;;;;10.33;70.81;101157.00;5137096;27;9485;-58
2022/11/11 04:34:43;;;;;;;;;0.50;0.50;;;;;10.30;70.44;101167.00;5137039;27;8897;-58
2022/11/11 04:37:11;;;;;;;;;0.00;0.00;;;;;10.27;70.99;101168.06;5136633;27;8845;-58
2022/11/11 04:42:24;;;;;;;;;1.00;0.25;;;;;10.26;70.76;101160.97;5136453;27;8830;-58
2022/11/11 04:47:36;;;;;;;;;1.00;0.00;;;;;10.29;70.50;101166.16;5136103;27;8836;-56
2022/11/11 04:50:04;;;;;;;;;0.00;0.00;;;;;10.31;70.31;101164.25;5135947;27;8817;-58
2022/11/11 04:52:34;;;;;;;;;0.25;0.00;;;;;10.30;70.74;101167.00;5136344;27;8848;-58
2022/11/11 04:57:57;;;;;;;;;0.00;0.00;;;;;10.26;71.06;101171.63;5076708;27;8830;-57
2022/11/11 05:00:24;;;;;;;;;1.00;1.00;;;;;10.20;70.44;101164.03;5136233;27;8830;-57
2022/11/11 05:03:15;;;;;;;;;0.00;0.00;;;;;10.15;71.10;101168.75;5136570;27;8818;-58
2022/11/11 05:11:12;;;;;;;;;0.00;0.00;;;;;10.01;71.28;101154.53;5118623;27;8829;-58
2022/11/11 05:22:09;;;;;;;;;0.00;0.00;;;;;10.04;71.15;101146.38;5033131;28;8841;-58
2022/11/11 05:27:22;;;;;;;;;0.75;0.75;;;;;10.03;71.24;101150.81;5111909;27;8820;-58
2022/11/11 05:29:50;;;;;;;;;0.00;0.00;;;;;10.04;70.83;101149.91;5156821;27;8915;-59
2022/11/11 05:32:21;;;;;;;;;4.00;1.00;;;;;10.01;70.98;101154.53;5156233;27;8891;-58
2022/11/11 05:34:48;;;;;;;;;0.75;0.00;;;;;9.96;71.00;101162.72;5156788;27;8838;-57
2022/11/11 05:37:16;;;;;;;;;1.00;1.00;;;;;9.91;71.36;101158.63;5156465;27;8827;-58
2022/11/11 05:39:43;;;;;;;;;2.50;2.50;;;;;9.94;71.12;101169.97;5156269;27;8912;-58
2022/11/11 05:42:11;;;;;;;;;0.00;0.00;;;;;9.96;71.22;101167.22;5156411;27;8890;-58
2022/11/11 05:44:40;;;;;;;;;1.00;1.00;;;;;9.97;71.21;101175.13;5156340;27;8808;-59
2022/11/11 05:47:08;;;;;;;;;0.00;0.00;;;;;9.98;71.41;101167.97;5156706;27;8850;-58
2022/11/11 05:49:36;;;;;;;;;0.00;0.00;;;;;9.99;70.67;101173.22;5156489;27;8815;-58
2022/11/11 05:52:03;;;;;;;;;1.00;0.00;;;;;10.01;70.82;101171.31;5156431;27;8800;-58
2022/11/11 05:54:31;;;;;;;;;1.00;1.00;;;;;10.05;70.88;101182.69;5156525;27;8819;-55
2022/11/11 05:56:59;;;;;;;;;0.50;0.50;;;;;10.08;70.68;101182.53;5156877;27;8815;-58
2022/11/11 05:59:27;;;;;;;;;3.75;1.00;;;;;10.06;70.71;101185.25;5155591;27;8819;-59
2022/11/11 06:01:54;;;;;;;;;0.50;0.25;;;;;10.06;70.94;101185.25;5157852;27;8842;-58
2022/11/11 06:04:22;;;;;;;;;0.25;0.25;;;;;10.06;70.64;101192.38;5158908;27;8889;-59
2022/11/11 06:06:50;;;;;;;;;0.25;0.25;;;;;10.04;70.95;101191.63;5159347;27;9558;-58
2022/11/11 06:09:19;;;;;;;;;0.00;0.00;;;;;10.00;70.74;101187.38;5158875;27;9522;-58
2022/11/11 06:11:47;;;;;;;;;1.00;1.00;;;;;9.97;70.97;101199.06;5157978;27;8881;-58
2022/11/11 06:14:14;;;;;;;;;3.00;1.00;;;;;9.98;70.73;101203.44;5158193;27;8823;-57
2022/11/11 06:16:42;;;;;;;;;3.00;3.00;;;;;9.98;71.29;101197.25;5156906;27;8835;-58
2022/11/11 06:19:10;;;;;;;;;0.50;0.50;;;;;10.01;70.91;101199.75;5157276;27;8816;-58
2022/11/11 06:24:19;;;;;;;;;2.00;1.00;;;;;10.00;70.76;101209.53;5157028;27;8934;-57
2022/11/11 06:26:52;;;;;;;;;2.00;1.00;;;;;9.99;70.69;101207.81;5157287;27;8859;-58
2022/11/11 06:29:20;;;;;;;;;0.75;0.75;;;;;9.99;70.78;101221.13;5157093;27;8858;-57
2022/11/11 06:31:48;;;;;;;;;0.50;0.00;;;;;9.99;71.06;101214.94;5157193;27;8830;-58
2022/11/11 06:34:17;;;;;;;;;0.00;0.00;;;;;9.98;70.47;101224.72;5156159;27;8827;-58
2022/11/11 06:36:45;;;;;;;;;0.00;0.00;;;;;10.00;70.51;101222.84;5154464;27;8883;-59
2022/11/11 06:39:12;;;;;;;;;1.00;1.00;;;;;10.00;70.61;101220.16;5154014;27;8871;-57
2022/11/11 06:41:40;;;;;;;;;0.00;0.00;;;;;10.05;70.42;101228.78;5153500;27;9537;-58
2022/11/11 06:44:08;;;;;;;;;0.00;0.00;;;;;10.09;70.51;101224.16;5153749;27;9506;-56
2022/11/11 06:46:36;;;;;;;;;2.50;1.00;;;;;10.14;70.32;101225.59;5153665;27;8815;-58
2022/11/11 06:49:03;;;;;;;;;0.00;0.00;;;;;10.16;70.12;101234.34;5154441;27;9624;-58
2022/11/11 06:51:31;;;;;;;;;0.50;0.00;;;;;10.21;69.85;101240.28;5155057;27;8823;-57
2022/11/11 06:53:59;;;;;;;;;1.00;0.00;;;;;10.24;70.36;101240.09;5155867;27;8870;-58
2022/11/11 06:56:27;;;;;;;;;0.00;0.00;;;;;10.28;70.22;101241.66;5156294;27;8844;-58
2022/11/11 06:58:54;;;;;;;;;0.00;0.00;;;;;10.33;70.13;101255.53;5156828;27;9514;-58
2022/11/11 07:01:22;;;;;;;;;0.00;0.00;;;;;10.35;70.16;101261.66;5156535;27;8839;-58
2022/11/11 07:03:50;;;;;;;;;0.00;0.00;;;;;10.37;69.61;101254.41;5156803;27;8831;-58
2022/11/11 07:06:18;;;;;;;;;1.50;1.00;;;;;10.38;69.67;101264.13;5156405;27;8945;-58
2022/11/11 07:08:46;;;;;;;;;1.00;0.00;;;;;10.39;69.85;101265.00;5155681;27;8853;-58
2022/11/11 07:11:15;;;;;;;;;0.25;0.25;;;;;10.42;69.69;101262.13;5154540;27;8847;-58
2022/11/11 07:13:45;;;;;;;;;0.00;0.00;;;;;10.45;69.44;101264.59;5155757;27;8823;-57
2022/11/11 07:16:13;;;;;;;;;0.00;0.00;;;;;10.47;70.04;101266.25;5154966;27;8842;-58
2022/11/11 07:18:41;;;;;;;;;0.00;0.00;;;;;10.46;69.46;101267.19;5153845;27;8946;-58
2022/11/11 07:21:09;;;;;;;;;0.75;0.75;;;;;10.46;69.82;101275.19;5153427;27;8835;-58
2022/11/11 07:23:37;;;;;;;;;0.75;0.75;;;;;10.46;69.80;101275.19;5154641;27;9551;-57
2022/11/11 07:26:05;;;;;;;;;0.00;0.00;;;;;10.45;69.42;101270.81;5155527;27;8840;-58
2022/11/11 07:28:32;;;;;;;;;3.25;3.00;;;;;10.43;69.36;101270.03;5154893;27;8834;-56
2022/11/11 07:31:01;;;;;;;;;0.00;0.00;;;;;10.41;69.77;101277.25;5155263;27;9549;-56
2022/11/11 07:33:28;;;;;;;;;0.50;0.00;;;;;10.38;70.16;101276.56;5154845;27;8819;-56
2022/11/11 07:35:56;;;;;;;;;0.00;0.00;;;;;10.37;69.97;101280.16;5155050;27;8819;-58
2022/11/11 07:38:24;;;;;;;;;0.75;0.75;;;;;10.35;69.77;101279.41;5155427;27;8970;-58
2022/11/11 07:40:52;;;;;;;;;0.00;0.00;;;;;10.36;70.03;101276.66;5155852;27;8819;-57
2022/11/11 07:43:20;;;;;;;;;1.00;1.00;;;;;10.36;70.02;101276.66;5155217;27;8831;-58
2022/11/11 07:45:48;;;;;;;;;1.00;1.00;;;;;10.37;69.51;101264.19;5153247;27;8839;-58
2022/11/11 07:48:18;;;;;;;;;1.00;1.00;;;;;10.39;69.52;101255.19;5153867;27;8819;-57
2022/11/11 07:50:45;;;;;;;;;1.00;1.00;;;;;10.41;69.47;101266.59;5154190;27;8820;-58
2022/11/11 07:53:13;;;;;;;;;1.00;1.00;;;;;10.43;69.71;101278.03;5153537;27;8895;-58
2022/11/11 07:55:41;;;;;;;;;0.50;0.25;;;;;10.45;69.20;101281.47;5154431;27;8827;-58
2022/11/11 07:58:09;;;;;;;;;2.00;0.75;;;;;10.46;69.88;101275.19;5154863;27;8831;-58
2022/11/11 08:00:38;;;;;;;;;2.00;2.00;;;;;10.47;69.30;101276.88;5154251;27;8890;-59
2022/11/11 08:03:06;;;;;;;;;0.00;0.00;;;;;10.51;69.41;101282.91;5153774;27;8958;-59
2022/11/11 08:05:35;;;;;;;;;1.00;1.00;;;;;10.54;69.34;101288.06;5153672;27;8815;-58
2022/11/11 08:08:04;;;;;;;;;0.25;0.25;;;;;10.59;69.06;101293.97;5154356;27;8852;-58
2022/11/11 08:10:32;;;;;;;;;0.75;0.75;;;;;10.63;68.94;101288.38;5154123;27;8823;-58
2022/11/11 08:15:46;;;;;;;;;1.00;1.00;;;;;10.78;69.25;101292.81;5153055;27;8840;-58
2022/11/11 08:18:14;;;;;;;;;0.00;0.00;;;;;10.86;69.37;101301.19;5152415;27;8839;-58
2022/11/11 08:20:41;;;;;;;;;0.25;0.25;;;;;10.92;68.95;101295.50;5150820;27;8842;-59
2022/11/11 08:23:20;;;;;;;;;0.00;0.00;;;;;11.01;68.38;101299.44;5149832;27;8924;-59
2022/11/11 08:26:08;;;;;;;;;0.75;0.75;;;;;11.10;68.81;101299.75;5151715;27;8858;-58
2022/11/11 08:28:36;;;;;;;;;0.50;0.50;;;;;11.19;68.30;101301.88;5151882;27;9482;-59
2022/11/11 08:31:04;;;;;;;;;0.00;0.00;;;;;11.27;68.13;101293.38;5151641;27;8843;-58
2022/11/11 08:33:32;;;;;;;;;0.25;0.25;;;;;11.34;67.58;101289.41;5152085;27;8859;-59
2022/11/11 08:36:13;;;;;;;;;0.75;0.75;;;;;11.41;68.08;101288.94;5152374;27;8823;-58
2022/11/11 08:38:47;;;;;;;;;0.00;0.00;;;;;11.48;67.56;101278.75;5153377;27;8869;-58
2022/11/11 08:41:15;;;;;;;;;1.50;1.00;;;;;11.55;67.62;101288.94;5153901;27;8820;-59
2022/11/11 08:43:43;;;;;;;;;2.00;2.00;;;;;11.64;67.24;101282.19;5153737;27;8823;-59
2022/11/11 08:46:14;;;;;;;;;1.00;1.00;;;;;11.72;67.16;101283.44;5153662;27;8827;-59
2022/11/11 08:48:42;;;;;;;;;0.00;0.00;;;;;11.79;67.06;101284.78;5154113;27;8819;-58
2022/11/11 08:51:10;;;;;;;;;0.50;0.50;;;;;11.87;67.50;101284.28;5154279;27;8835;-58
2022/11/11 08:53:38;;;;;;;;;0.50;0.50;;;;;11.95;67.50;101283.69;5153926;27;8838;-58
2022/11/11 08:56:06;;;;;;;;;0.67;0.00;;;;;12.03;66.44;101292.09;5152299;27;8835;-58
2022/11/11 08:58:35;;;;;;;;;0.00;0.00;;;;;12.11;66.61;101289.78;5152454;27;8836;-59
2022/11/11 09:01:04;;;;;;;;;0.75;0.75;;;;;12.18;66.64;101287.56;5152772;27;8827;-59
2022/11/11 09:03:32;;;;;;;;;0.00;0.00;;;;;12.24;66.56;101284.50;5153072;27;8816;-59
2022/11/11 09:05:59;;;;;;;;;0.00;0.00;;;;;12.31;66.38;101283.16;5152936;27;8843;-58
2022/11/11 09:08:27;;;;;;;;;0.25;0.25;;;;;12.37;66.61;101286.25;5151010;27;8839;-58
2022/11/11 09:10:56;;;;;;;;;0.50;0.00;;;;;12.43;66.34;101293.88;5150905;27;8873;-57
2022/11/11 09:13:24;;;;;;;;;2.50;1.00;;;;;12.51;65.99;101296.03;5152936;27;9231;-58
2022/11/11 09:15:52;;;;;;;;;1.00;1.00;;;;;12.58;65.44;101295.53;5151570;27;8858;-58
2022/11/11 09:18:21;;;;;;;;;0.25;0.25;;;;;12.66;65.86;101305.72;5152234;27;8839;-59
2022/11/11 09:20:49;;;;;;;;;2.00;1.00;;;;;12.75;65.79;101299.78;5152819;27;9261;-59
2022/11/11 09:23:16;;;;;;;;;1.00;1.00;;;;;12.83;64.81;101297.44;5153258;27;8974;-59
2022/11/11 09:25:45;;;;;;;;;1.00;1.00;;;;;12.90;65.16;101298.75;5153485;27;8836;-59
2022/11/11 09:28:13;;;;;;;;;0.50;0.50;;;;;12.96;64.78;101303.69;5152856;27;8828;-59
2022/11/11 09:30:41;;;;;;;;;3.00;1.50;;;;;13.02;64.34;101295.25;5153086;27;8823;-59
2022/11/11 09:33:11;;;;;;;;;0.00;0.00;;;;;13.09;64.42;101304.56;5152775;27;8854;-57
2022/11/11 09:35:40;;;;;;;;;0.50;0.50;;;;;13.17;64.60;101299.56;5154852;27;8823;-58
2022/11/11 09:38:08;;;;;;;;;1.00;1.00;;;;;13.25;64.14;101306.09;5156795;27;8877;-59
2022/11/11 09:40:36;;;;;;;;;1.00;1.00;;;;;13.35;63.68;101306.34;5156969;27;8819;-59
2022/11/11 09:43:04;;;;;;;;;0.00;0.00;;;;;13.48;63.82;101307.16;5157061;27;8856;-59
2022/11/11 09:45:32;;;;;;;;;0.00;0.00;;;;;13.65;63.11;101304.16;5157007;27;9395;-58
2022/11/11 09:48:00;;;;;;;;;0.50;0.50;;;;;13.84;62.76;101294.75;5156108;27;8858;-59
2022/11/11 09:50:35;;;;;;;;;1.00;1.00;;;;;14.01;62.50;101294.38;5156092;27;8824;-59
2022/11/11 09:53:03;;;;;;;;;3.00;2.00;;;;;14.17;62.17;101292.31;5155717;27;9039;-59
2022/11/11 09:55:31;;;;;;;;;0.50;0.50;;;;;14.36;61.88;101298.03;5156301;27;8820;-59
2022/11/11 09:57:59;;;;;;;;;1.00;0.25;;;;;14.71;61.37;101298.13;5156758;27;8949;-59
2022/11/11 10:00:28;;;;;;;;;0.25;0.25;;;;;15.09;60.15;101296.91;5157207;27;8919;-59
2022/11/11 10:02:56;;;;;;;;;1.00;0.00;;;;;15.55;59.21;101305.81;5157747;27;8869;-58
2022/11/11 10:05:24;;;;;;;;;0.75;0.75;;;;;15.88;58.71;101305.88;5158131;27;8835;-59
2022/11/11 10:07:52;;;;;;;;;0.00;0.00;;;;;16.06;58.98;101308.88;5158619;27;8843;-59
2022/11/11 10:10:20;;;;;;;;;0.00;0.00;;;;;16.14;58.11;101306.47;5157198;27;8859;-59
2022/11/11 10:12:48;;;;;;;;;0.00;0.00;;;;;16.23;58.47;101307.41;5157723;27;8953;-59
2022/11/11 10:15:17;;;;;;;;;0.00;0.00;;;;;16.25;58.22;101310.84;5156650;27;8973;-58
2022/11/11 10:17:45;;;;;;;;;0.00;0.00;;;;;16.27;58.63;101314.25;5156767;27;8831;-59
2022/11/11 10:20:13;;;;;;;;;0.00;0.00;;;;;16.27;59.10;101319.63;5154203;27;8815;-60
2022/11/11 10:22:41;;;;;;;;;0.00;0.00;;;;;16.22;58.59;101323.66;5153871;27;8831;-58
2022/11/11 10:25:10;;;;;;;;;0.00;0.00;;;;;16.15;58.53;101322.44;5154906;27;8876;-59
2022/11/11 10:27:38;;;;;;;;;3.00;1.00;;;;;16.05;58.80;101317.94;5154869;27;8819;-59
2022/11/11 10:30:06;;;;;;;;;0.00;0.00;;;;;15.98;58.42;101322.94;5155260;27;8835;-57
2022/11/11 10:32:34;;;;;;;;;6.25;6.00;;;;;16.01;58.76;101320.00;5154836;27;8819;-58
2022/11/11 10:35:02;;;;;;;;;0.00;0.00;;;;;16.08;58.81;101317.72;5154361;27;8849;-59
2022/11/11 10:37:31;;;;;;;;;0.00;0.00;;;;;16.14;58.97;101317.22;5154469;27;8828;-59
2022/11/11 10:39:59;;;;;;;;;0.00;0.00;;;;;16.32;58.49;101322.78;5155612;27;8843;-58
2022/11/11 10:42:27;;;;;;;;;0.00;0.00;;;;;16.56;57.93;101325.38;5155282;27;8819;-59
2022/11/11 10:44:55;;;;;;;;;1.00;1.00;;;;;16.77;57.29;101323.56;5155321;27;8850;-59
2022/11/11 10:47:30;;;;;;;;;0.00;0.00;;;;;16.90;56.53;101329.63;5154016;27;8819;-59
2022/11/11 10:49:59;;;;;;;;;0.00;0.00;;;;;16.99;56.53;101332.41;5155107;27;8824;-59
2022/11/11 10:52:27;;;;;;;;;0.00;0.00;;;;;17.15;56.50;101330.13;5155742;27;8853;-59
2022/11/11 10:54:55;;;;;;;;;0.00;0.00;;;;;17.26;56.23;101331.94;5155577;27;8830;-59
2022/11/11 10:57:23;;;;;;;;;0.00;0.00;;;;;17.29;56.10;101332.50;5154451;27;8835;-59
2022/11/11 10:59:52;;;;;;;;;0.00;0.00;;;;;17.21;55.98;101337.69;5142976;27;8867;-58
2022/11/11 11:02:24;;;;;;;;;0.00;0.00;;;;;17.10;55.63;101337.75;5135779;27;8838;-57
2022/11/11 11:04:53;;;;;;;;;0.00;0.00;;;;;16.98;56.03;101338.78;5134339;27;8829;-59
2022/11/11 11:07:21;;;;;;;;;0.00;0.00;;;;;16.90;56.29;101337.72;5132862;27;8884;-59
2022/11/11 11:09:49;;;;;;;;;1.00;1.00;;;;;16.76;56.01;101329.94;5132822;27;8848;-59
2022/11/11 11:12:17;;;;;;;;;0.80;0.80;;;;;16.64;56.51;101321.03;5132627;27;8841;-59
2022/11/11 11:14:48;;;;;;;;;1.00;1.00;;;;;16.54;55.47;101319.22;5131364;27;8837;-59
2022/11/11 11:17:17;;;;;;;;;0.00;0.00;;;;;16.48;55.90;101327.81;5131655;27;8854;-59
2022/11/11 11:19:45;;;;;;;;;0.00;0.00;;;;;16.42;56.18;101328.31;5132151;27;8895;-59
2022/11/11 11:22:12;;;;;;;;;0.00;0.00;;;;;16.38;56.19;101320.63;5132540;27;8837;-58
2022/11/11 11:24:40;;;;;;;;;0.40;0.40;;;;;16.35;55.93;101324.38;5132470;27;9114;-59
2022/11/11 11:27:12;;;;;;;;;0.40;0.40;;;;;16.29;55.72;101312.31;5132405;27;8830;-58
2022/11/11 11:29:41;;;;;;;;;0.00;0.00;;;;;16.27;56.02;101319.63;5133072;27;8875;-59
2022/11/11 11:32:09;;;;;;;;;0.80;0.00;;;;;16.28;55.81;101315.09;5133647;27;8822;-59
2022/11/11 11:34:36;;;;;;;;;1.00;0.20;;;;;16.32;55.75;101320.09;5132774;27;8925;-59
2022/11/11 11:37:05;;;;;;;;;0.00;0.00;;;;;16.38;55.14;101313.41;5132748;27;8829;-59
2022/11/11 11:39:35;;;;;;;;;0.60;0.40;;;;;16.41;55.39;101305.94;5131570;27;8869;-59
2022/11/11 11:42:03;;;;;;;;;0.00;0.00;;;;;16.43;55.48;101309.38;5130859;27;8826;-59
2022/11/11 11:44:31;;;;;;;;;3.00;3.00;;;;;16.45;55.08;101306.53;5131251;27;8964;-59
2022/11/11 11:46:59;;;;;;;;;3.00;3.00;;;;;16.54;55.17;101306.66;5131616;27;8826;-59
2022/11/11 11:49:27;;;;;;;;;1.00;0.60;;;;;16.59;54.52;101309.81;5132024;27;8849;-59
2022/11/11 11:51:54;;;;;;;;;1.00;1.00;;;;;16.56;54.64;101299.31;5130989;27;8963;-58
2022/11/11 11:54:23;;;;;;;;;0.80;0.80;;;;;16.56;54.81;101307.38;5130732;27;8840;-59
2022/11/11 11:56:51;;;;;;;;;0.00;0.00;;;;;16.64;54.87;101296.81;5130651;27;8868;-59
2022/11/11 11:59:19;;;;;;;;;1.00;1.00;;;;;16.74;54.14;101296.91;5130117;27;8864;-58
2022/11/11 12:01:46;;;;;;;;;0.00;0.00;;;;;16.78;54.75;101293.00;5131649;27;8841;-59
2022/11/11 12:04:14;;;;;;;;;1.00;0.40;;;;;16.78;54.34;101299.22;5131071;27;8960;-58
2022/11/11 12:06:42;;;;;;;;;1.00;1.00;;;;;16.75;54.71;101294.13;5131829;27;8914;-58
2022/11/11 12:09:11;;;;;;;;;0.00;0.00;;;;;16.72;54.83;101288.97;5132672;27;8872;-59
2022/11/11 12:11:38;;;;;;;;;0.00;0.00;;;;;16.73;54.76;101290.72;5132562;27;8833;-59
2022/11/11 12:14:06;;;;;;;;;0.00;0.00;;;;;16.77;54.00;101296.66;5133191;27;8955;-57
2022/11/11 12:16:35;;;;;;;;;0.00;0.00;;;;;16.79;53.78;101295.53;5134762;27;8960;-57
2022/11/11 12:19:10;;;;;;;;;0.60;0.60;;;;;16.80;53.78;101291.88;5134269;27;8825;-59
2022/11/11 12:21:38;;;;;;;;;0.00;0.00;;;;;16.82;54.15;101283.69;5133288;27;8826;-59
2022/11/11 12:24:06;;;;;;;;;3.00;3.00;;;;;16.81;54.09;101290.06;5131805;27;8799;-59
2022/11/11 12:26:36;;;;;;;;;1.00;1.00;;;;;16.79;54.38;101298.25;5132285;27;8829;-58
2022/11/11 12:29:05;;;;;;;;;0.00;0.00;;;;;16.76;54.39;101295.81;5132928;27;8822;-58
2022/11/11 12:31:33;;;;;;;;;0.00;0.00;;;;;16.75;54.14;101302.19;5132578;27;8829;-57
2022/11/11 12:34:00;;;;;;;;;1.20;0.80;;;;;16.74;53.79;101297.78;5131387;27;8806;-57
2022/11/11 12:36:28;;;;;;;;;1.00;1.00;;;;;16.72;53.79;101294.34;5132066;27;8837;-57
2022/11/11 12:38:57;;;;;;;;;3.20;1.80;;;;;16.72;53.70;101297.03;5132519;27;8999;-58
2022/11/11 12:41:25;;;;;;;;;0.00;0.00;;;;;16.75;54.14;101288.72;5132545;27;9730;-57
2022/11/11 12:43:54;;;;;;;;;0.00;0.00;;;;;16.78;54.29;101287.63;5131686;27;8830;-58
2022/11/11 12:46:21;;;;;;;;;0.80;0.80;;;;;16.77;53.86;101292.13;5132696;27;9532;-57
2022/11/11 12:48:49;;;;;;;;;1.00;1.00;;;;;16.76;53.42;101285.06;5132510;27;8833;-58
2022/11/11 12:51:19;;;;;;;;;3.20;3.00;;;;;16.85;53.24;101284.28;5132132;27;8837;-59
2022/11/11 12:53:48;;;;;;;;;0.60;0.60;;;;;16.98;53.18;101284.97;5144017;27;9482;-56